sensor_id;sensor_type;location;lat;lon;timestamp;P1;durP1;ratioP1;P2;durP2;ratioP2
23410;SDS011;11878;51.774;7.220;2024-01-30T00:01:43;14.97;;;5.67;;
23410;SDS011;11878;51.774;7.220;2024-01-30T00:04:45;10.67;;;5.50;;
23410;SDS011;11878;51.774;7.220;2024-01-30T00:07:47;10.17;;;5.43;;
23410;SDS011;11878;51.774;7.220;2024-01-30T00:10:49;11.57;;;6.47;;
23410;SDS011;11878;51.774;7.220;2024-01-30T00:13:53;9.53;;;4.33;;
23410;SDS011;11878;51.774;7.220;2024-01-30T00:16:57;14.77;;;6.53;;
23410;SDS011;11878;51.774;7.220;2024-01-30T00:19:59;12.93;;;6.00;;
23410;SDS011;11878;51.774;7.220;2024-01-30T00:23:01;13.33;;;6.27;;
23410;SDS011;11878;51.774;7.220;2024-01-30T00:26:03;12.30;;;6.17;;
23410;SDS011;11878;51.774;7.220;2024-01-30T00:29:06;11.13;;;5.20;;
23410;SDS011;11878;51.774;7.220;2024-01-30T00:32:08;8.90;;;5.73;;
23410;SDS011;11878;51.774;7.220;2024-01-30T00:35:10;8.70;;;5.17;;
23410;SDS011;11878;51.774;7.220;2024-01-30T00:38:12;11.13;;;5.43;;
23410;SDS011;11878;51.774;7.220;2024-01-30T00:41:14;9.27;;;4.87;;
23410;SDS011;11878;51.774;7.220;2024-01-30T00:44:18;10.80;;;5.40;;
23410;SDS011;11878;51.774;7.220;2024-01-30T00:47:20;7.37;;;4.30;;
23410;SDS011;11878;51.774;7.220;2024-01-30T00:50:22;8.53;;;4.53;;
23410;SDS011;11878;51.774;7.220;2024-01-30T00:53:24;11.87;;;5.23;;
23410;SDS011;11878;51.774;7.220;2024-01-30T00:56:25;14.13;;;5.30;;
23410;SDS011;11878;51.774;7.220;2024-01-30T00:59:27;8.97;;;4.77;;
23410;SDS011;11878;51.774;7.220;2024-01-30T01:02:29;9.67;;;5.07;;
23410;SDS011;11878;51.774;7.220;2024-01-30T01:05:31;14.97;;;5.40;;
23410;SDS011;11878;51.774;7.220;2024-01-30T01:08:33;11.10;;;4.23;;
23410;SDS011;11878;51.774;7.220;2024-01-30T01:11:35;10.83;;;4.63;;
23410;SDS011;11878;51.774;7.220;2024-01-30T01:14:36;8.20;;;4.23;;
23410;SDS011;11878;51.774;7.220;2024-01-30T01:17:38;10.90;;;4.37;;
23410;SDS011;11878;51.774;7.220;2024-01-30T01:20:40;8.63;;;4.67;;
23410;SDS011;11878;51.774;7.220;2024-01-30T01:23:42;7.90;;;4.37;;
23410;SDS011;11878;51.774;7.220;2024-01-30T01:26:44;10.70;;;5.00;;
23410;SDS011;11878;51.774;7.220;2024-01-30T01:29:46;8.73;;;4.17;;
23410;SDS011;11878;51.774;7.220;2024-01-30T01:32:48;7.90;;;3.67;;
23410;SDS011;11878;51.774;7.220;2024-01-30T01:35:59;9.60;;;4.07;;
23410;SDS011;11878;51.774;7.220;2024-01-30T01:39:03;5.93;;;3.83;;
23410;SDS011;11878;51.774;7.220;2024-01-30T01:42:05;7.67;;;3.50;;
23410;SDS011;11878;51.774;7.220;2024-01-30T01:45:08;7.80;;;4.40;;
23410;SDS011;11878;51.774;7.220;2024-01-30T01:48:10;7.27;;;3.47;;
23410;SDS011;11878;51.774;7.220;2024-01-30T01:51:12;7.97;;;4.20;;
23410;SDS011;11878;51.774;7.220;2024-01-30T01:54:15;10.53;;;3.63;;
23410;SDS011;11878;51.774;7.220;2024-01-30T01:57:17;6.80;;;3.53;;
23410;SDS011;11878;51.774;7.220;2024-01-30T02:00:19;7.60;;;3.90;;
23410;SDS011;11878;51.774;7.220;2024-01-30T02:03:21;8.30;;;2.67;;
23410;SDS011;11878;51.774;7.220;2024-01-30T02:06:23;8.73;;;4.27;;
23410;SDS011;11878;51.774;7.220;2024-01-30T02:09:25;7.83;;;3.70;;
23410;SDS011;11878;51.774;7.220;2024-01-30T02:12:27;5.50;;;3.00;;
23410;SDS011;11878;51.774;7.220;2024-01-30T02:15:28;7.33;;;4.10;;
23410;SDS011;11878;51.774;7.220;2024-01-30T02:18:30;6.07;;;3.50;;
23410;SDS011;11878;51.774;7.220;2024-01-30T02:21:32;8.27;;;4.13;;
23410;SDS011;11878;51.774;7.220;2024-01-30T02:24:34;6.17;;;3.40;;
23410;SDS011;11878;51.774;7.220;2024-01-30T02:27:36;6.10;;;3.83;;
23410;SDS011;11878;51.774;7.220;2024-01-30T02:30:44;6.10;;;3.20;;
23410;SDS011;11878;51.774;7.220;2024-01-30T02:33:47;5.53;;;3.37;;
23410;SDS011;11878;51.774;7.220;2024-01-30T02:36:49;6.57;;;3.93;;
23410;SDS011;11878;51.774;7.220;2024-01-30T02:39:51;5.30;;;3.20;;
23410;SDS011;11878;51.774;7.220;2024-01-30T02:42:52;7.87;;;3.60;;
23410;SDS011;11878;51.774;7.220;2024-01-30T02:45:54;7.03;;;3.83;;
23410;SDS011;11878;51.774;7.220;2024-01-30T02:48:56;8.03;;;3.47;;
23410;SDS011;11878;51.774;7.220;2024-01-30T02:51:58;6.03;;;2.83;;
23410;SDS011;11878;51.774;7.220;2024-01-30T02:55:01;11.33;;;4.20;;
23410;SDS011;11878;51.774;7.220;2024-01-30T02:58:03;6.03;;;3.60;;
23410;SDS011;11878;51.774;7.220;2024-01-30T03:01:08;6.60;;;3.73;;
23410;SDS011;11878;51.774;7.220;2024-01-30T03:04:10;7.43;;;3.63;;
23410;SDS011;11878;51.774;7.220;2024-01-30T03:07:12;10.80;;;4.07;;
23410;SDS011;11878;51.774;7.220;2024-01-30T03:10:14;8.10;;;4.37;;
23410;SDS011;11878;51.774;7.220;2024-01-30T03:13:16;8.83;;;3.60;;
23410;SDS011;11878;51.774;7.220;2024-01-30T03:16:18;6.63;;;3.50;;
23410;SDS011;11878;51.774;7.220;2024-01-30T03:19:20;5.63;;;3.60;;
23410;SDS011;11878;51.774;7.220;2024-01-30T03:22:22;7.40;;;3.83;;
23410;SDS011;11878;51.774;7.220;2024-01-30T03:25:24;9.27;;;3.67;;
23410;SDS011;11878;51.774;7.220;2024-01-30T03:28:26;8.00;;;3.80;;
23410;SDS011;11878;51.774;7.220;2024-01-30T03:31:28;6.97;;;3.60;;
23410;SDS011;11878;51.774;7.220;2024-01-30T03:34:29;5.80;;;3.47;;
23410;SDS011;11878;51.774;7.220;2024-01-30T03:37:31;10.53;;;4.27;;
23410;SDS011;11878;51.774;7.220;2024-01-30T03:40:33;8.60;;;4.10;;
23410;SDS011;11878;51.774;7.220;2024-01-30T03:43:36;7.17;;;4.23;;
23410;SDS011;11878;51.774;7.220;2024-01-30T03:46:38;8.07;;;4.37;;
23410;SDS011;11878;51.774;7.220;2024-01-30T03:49:40;7.70;;;3.40;;
23410;SDS011;11878;51.774;7.220;2024-01-30T03:52:41;9.00;;;3.83;;
23410;SDS011;11878;51.774;7.220;2024-01-30T03:55:43;7.33;;;4.10;;
23410;SDS011;11878;51.774;7.220;2024-01-30T03:58:45;8.23;;;3.83;;
23410;SDS011;11878;51.774;7.220;2024-01-30T04:01:47;6.57;;;4.07;;
23410;SDS011;11878;51.774;7.220;2024-01-30T04:04:49;6.07;;;3.23;;
23410;SDS011;11878;51.774;7.220;2024-01-30T04:07:51;8.73;;;4.30;;
23410;SDS011;11878;51.774;7.220;2024-01-30T04:10:53;7.87;;;4.10;;
23410;SDS011;11878;51.774;7.220;2024-01-30T04:13:55;6.17;;;4.00;;
23410;SDS011;11878;51.774;7.220;2024-01-30T04:16:57;6.17;;;3.53;;
23410;SDS011;11878;51.774;7.220;2024-01-30T04:19:58;6.63;;;3.57;;
23410;SDS011;11878;51.774;7.220;2024-01-30T04:23:01;6.37;;;3.60;;
23410;SDS011;11878;51.774;7.220;2024-01-30T04:26:02;12.23;;;3.57;;
23410;SDS011;11878;51.774;7.220;2024-01-30T04:29:04;7.63;;;3.70;;
23410;SDS011;11878;51.774;7.220;2024-01-30T04:32:06;8.37;;;4.33;;
23410;SDS011;11878;51.774;7.220;2024-01-30T04:35:08;7.50;;;4.83;;
23410;SDS011;11878;51.774;7.220;2024-01-30T04:38:12;9.47;;;4.10;;
23410;SDS011;11878;51.774;7.220;2024-01-30T04:41:15;7.73;;;4.30;;
23410;SDS011;11878;51.774;7.220;2024-01-30T04:44:17;9.30;;;3.90;;
23410;SDS011;11878;51.774;7.220;2024-01-30T04:47:19;8.07;;;4.50;;
23410;SDS011;11878;51.774;7.220;2024-01-30T04:50:21;7.27;;;3.50;;
23410;SDS011;11878;51.774;7.220;2024-01-30T04:53:22;6.87;;;3.90;;
23410;SDS011;11878;51.774;7.220;2024-01-30T04:56:24;4.50;;;2.93;;
23410;SDS011;11878;51.774;7.220;2024-01-30T04:59:26;7.33;;;4.07;;
23410;SDS011;11878;51.774;7.220;2024-01-30T05:02:28;6.03;;;3.10;;
23410;SDS011;11878;51.774;7.220;2024-01-30T05:05:30;5.53;;;3.23;;
23410;SDS011;11878;51.774;7.220;2024-01-30T05:08:31;7.43;;;3.67;;
23410;SDS011;11878;51.774;7.220;2024-01-30T05:11:37;6.40;;;3.43;;
23410;SDS011;11878;51.774;7.220;2024-01-30T05:14:40;7.80;;;4.17;;
23410;SDS011;11878;51.774;7.220;2024-01-30T05:17:42;8.80;;;3.73;;
23410;SDS011;11878;51.774;7.220;2024-01-30T05:20:44;8.03;;;3.40;;
23410;SDS011;11878;51.774;7.220;2024-01-30T05:23:46;8.90;;;4.13;;
23410;SDS011;11878;51.774;7.220;2024-01-30T05:26:47;10.73;;;3.83;;
23410;SDS011;11878;51.774;7.220;2024-01-30T05:29:49;8.30;;;3.53;;
23410;SDS011;11878;51.774;7.220;2024-01-30T05:32:52;7.73;;;3.97;;
23410;SDS011;11878;51.774;7.220;2024-01-30T05:35:54;7.63;;;3.77;;
23410;SDS011;11878;51.774;7.220;2024-01-30T05:38:57;8.83;;;3.50;;
23410;SDS011;11878;51.774;7.220;2024-01-30T05:41:59;6.80;;;3.67;;
23410;SDS011;11878;51.774;7.220;2024-01-30T05:45:01;8.63;;;4.17;;
23410;SDS011;11878;51.774;7.220;2024-01-30T05:48:03;8.20;;;4.47;;
23410;SDS011;11878;51.774;7.220;2024-01-30T05:51:07;6.73;;;3.77;;
23410;SDS011;11878;51.774;7.220;2024-01-30T05:54:10;12.43;;;4.93;;
23410;SDS011;11878;51.774;7.220;2024-01-30T05:57:15;5.20;;;3.57;;
23410;SDS011;11878;51.774;7.220;2024-01-30T06:00:16;7.43;;;4.40;;
23410;SDS011;11878;51.774;7.220;2024-01-30T06:03:18;6.30;;;2.90;;
23410;SDS011;11878;51.774;7.220;2024-01-30T06:06:20;7.57;;;3.87;;
23410;SDS011;11878;51.774;7.220;2024-01-30T06:09:22;8.83;;;3.93;;
23410;SDS011;11878;51.774;7.220;2024-01-30T06:12:24;14.07;;;4.70;;
23410;SDS011;11878;51.774;7.220;2024-01-30T06:15:27;5.97;;;3.77;;
23410;SDS011;11878;51.774;7.220;2024-01-30T06:18:31;10.17;;;5.03;;
23410;SDS011;11878;51.774;7.220;2024-01-30T06:21:32;6.73;;;3.37;;
23410;SDS011;11878;51.774;7.220;2024-01-30T06:24:37;8.57;;;4.10;;
23410;SDS011;11878;51.774;7.220;2024-01-30T06:27:39;7.33;;;4.00;;
23410;SDS011;11878;51.774;7.220;2024-01-30T06:30:41;7.50;;;4.77;;
23410;SDS011;11878;51.774;7.220;2024-01-30T06:33:46;7.60;;;4.33;;
23410;SDS011;11878;51.774;7.220;2024-01-30T06:36:48;7.63;;;4.37;;
23410;SDS011;11878;51.774;7.220;2024-01-30T06:39:50;10.03;;;4.97;;
23410;SDS011;11878;51.774;7.220;2024-01-30T06:42:53;9.50;;;5.10;;
23410;SDS011;11878;51.774;7.220;2024-01-30T06:45:55;11.00;;;4.77;;
23410;SDS011;11878;51.774;7.220;2024-01-30T06:48:57;9.97;;;4.97;;
23410;SDS011;11878;51.774;7.220;2024-01-30T06:51:58;7.87;;;4.30;;
23410;SDS011;11878;51.774;7.220;2024-01-30T06:55:00;9.77;;;4.37;;
23410;SDS011;11878;51.774;7.220;2024-01-30T06:58:03;9.07;;;4.63;;
23410;SDS011;11878;51.774;7.220;2024-01-30T07:01:06;8.73;;;4.67;;
23410;SDS011;11878;51.774;7.220;2024-01-30T07:04:08;9.87;;;4.60;;
23410;SDS011;11878;51.774;7.220;2024-01-30T07:07:10;10.13;;;4.93;;
23410;SDS011;11878;51.774;7.220;2024-01-30T07:10:14;10.67;;;5.30;;
23410;SDS011;11878;51.774;7.220;2024-01-30T07:13:16;10.50;;;5.10;;
23410;SDS011;11878;51.774;7.220;2024-01-30T07:16:18;10.83;;;5.60;;
23410;SDS011;11878;51.774;7.220;2024-01-30T07:19:21;9.97;;;5.10;;
23410;SDS011;11878;51.774;7.220;2024-01-30T07:22:24;9.77;;;4.10;;
23410;SDS011;11878;51.774;7.220;2024-01-30T07:25:26;12.77;;;5.30;;
23410;SDS011;11878;51.774;7.220;2024-01-30T07:28:28;10.97;;;5.87;;
23410;SDS011;11878;51.774;7.220;2024-01-30T07:31:31;11.33;;;5.27;;
23410;SDS011;11878;51.774;7.220;2024-01-30T07:34:35;13.27;;;5.63;;
23410;SDS011;11878;51.774;7.220;2024-01-30T07:37:50;10.57;;;5.33;;
23410;SDS011;11878;51.774;7.220;2024-01-30T07:40:51;11.70;;;5.10;;
23410;SDS011;11878;51.774;7.220;2024-01-30T07:43:53;12.90;;;6.37;;
23410;SDS011;11878;51.774;7.220;2024-01-30T07:46:55;11.57;;;5.80;;
23410;SDS011;11878;51.774;7.220;2024-01-30T07:49:58;10.80;;;5.20;;
23410;SDS011;11878;51.774;7.220;2024-01-30T07:53:00;19.90;;;7.13;;
23410;SDS011;11878;51.774;7.220;2024-01-30T07:56:05;16.30;;;6.67;;
23410;SDS011;11878;51.774;7.220;2024-01-30T07:59:11;10.83;;;6.90;;
23410;SDS011;11878;51.774;7.220;2024-01-30T08:02:14;21.70;;;7.67;;
23410;SDS011;11878;51.774;7.220;2024-01-30T08:05:16;13.47;;;6.83;;
23410;SDS011;11878;51.774;7.220;2024-01-30T08:08:19;21.33;;;8.20;;
23410;SDS011;11878;51.774;7.220;2024-01-30T08:11:21;14.20;;;6.23;;
23410;SDS011;11878;51.774;7.220;2024-01-30T08:14:27;13.30;;;6.40;;
23410;SDS011;11878;51.774;7.220;2024-01-30T08:17:29;12.97;;;6.93;;
23410;SDS011;11878;51.774;7.220;2024-01-30T08:20:31;12.53;;;7.23;;
23410;SDS011;11878;51.774;7.220;2024-01-30T08:23:33;16.53;;;7.40;;
23410;SDS011;11878;51.774;7.220;2024-01-30T08:26:35;14.37;;;6.93;;
23410;SDS011;11878;51.774;7.220;2024-01-30T08:29:37;13.70;;;7.03;;
23410;SDS011;11878;51.774;7.220;2024-01-30T08:32:39;15.47;;;7.53;;
23410;SDS011;11878;51.774;7.220;2024-01-30T08:35:41;14.30;;;6.93;;
23410;SDS011;11878;51.774;7.220;2024-01-30T08:38:44;11.80;;;6.57;;
23410;SDS011;11878;51.774;7.220;2024-01-30T08:41:46;13.33;;;6.80;;
23410;SDS011;11878;51.774;7.220;2024-01-30T08:44:49;15.73;;;7.27;;
23410;SDS011;11878;51.774;7.220;2024-01-30T08:47:53;14.73;;;7.47;;
23410;SDS011;11878;51.774;7.220;2024-01-30T08:50:56;12.57;;;7.00;;
23410;SDS011;11878;51.774;7.220;2024-01-30T08:53:58;11.03;;;6.60;;
23410;SDS011;11878;51.774;7.220;2024-01-30T08:57:01;11.73;;;6.40;;
23410;SDS011;11878;51.774;7.220;2024-01-30T09:00:03;11.50;;;6.73;;
23410;SDS011;11878;51.774;7.220;2024-01-30T09:03:08;13.57;;;6.67;;
23410;SDS011;11878;51.774;7.220;2024-01-30T09:06:10;14.33;;;6.57;;
23410;SDS011;11878;51.774;7.220;2024-01-30T09:09:13;12.07;;;6.33;;
23410;SDS011;11878;51.774;7.220;2024-01-30T09:12:16;16.13;;;7.43;;
23410;SDS011;11878;51.774;7.220;2024-01-30T09:15:18;15.13;;;7.07;;
23410;SDS011;11878;51.774;7.220;2024-01-30T09:18:21;12.47;;;6.80;;
23410;SDS011;11878;51.774;7.220;2024-01-30T09:21:24;13.10;;;6.73;;
23410;SDS011;11878;51.774;7.220;2024-01-30T09:24:27;11.27;;;5.23;;
23410;SDS011;11878;51.774;7.220;2024-01-30T09:27:29;16.60;;;6.97;;
23410;SDS011;11878;51.774;7.220;2024-01-30T09:30:32;8.43;;;4.93;;
23410;SDS011;11878;51.774;7.220;2024-01-30T09:33:34;9.57;;;4.90;;
23410;SDS011;11878;51.774;7.220;2024-01-30T09:36:38;10.70;;;4.73;;
23410;SDS011;11878;51.774;7.220;2024-01-30T09:39:40;16.27;;;4.00;;
23410;SDS011;11878;51.774;7.220;2024-01-30T09:42:42;12.23;;;5.20;;
23410;SDS011;11878;51.774;7.220;2024-01-30T09:45:52;11.17;;;4.40;;
23410;SDS011;11878;51.774;7.220;2024-01-30T09:48:55;10.47;;;4.50;;
23410;SDS011;11878;51.774;7.220;2024-01-30T09:51:59;9.60;;;4.13;;
23410;SDS011;11878;51.774;7.220;2024-01-30T09:55:02;7.10;;;3.53;;
23410;SDS011;11878;51.774;7.220;2024-01-30T09:58:04;9.43;;;4.67;;
23410;SDS011;11878;51.774;7.220;2024-01-30T10:01:07;13.17;;;4.90;;
23410;SDS011;11878;51.774;7.220;2024-01-30T10:04:10;19.30;;;7.23;;
23410;SDS011;11878;51.774;7.220;2024-01-30T10:07:12;12.33;;;5.53;;
23410;SDS011;11878;51.774;7.220;2024-01-30T10:10:16;15.00;;;6.70;;
23410;SDS011;11878;51.774;7.220;2024-01-30T10:13:17;14.10;;;6.37;;
23410;SDS011;11878;51.774;7.220;2024-01-30T10:16:19;11.77;;;5.97;;
23410;SDS011;11878;51.774;7.220;2024-01-30T10:19:21;9.97;;;4.33;;
23410;SDS011;11878;51.774;7.220;2024-01-30T10:22:24;13.47;;;5.10;;
23410;SDS011;11878;51.774;7.220;2024-01-30T10:30:11;6.93;;;4.07;;
23410;SDS011;11878;51.774;7.220;2024-01-30T10:33:13;8.43;;;4.50;;
23410;SDS011;11878;51.774;7.220;2024-01-30T10:36:16;8.70;;;3.80;;
23410;SDS011;11878;51.774;7.220;2024-01-30T10:39:21;7.50;;;3.50;;
23410;SDS011;11878;51.774;7.220;2024-01-30T10:42:26;10.50;;;4.23;;
23410;SDS011;11878;51.774;7.220;2024-01-30T10:45:31;10.17;;;4.17;;
23410;SDS011;11878;51.774;7.220;2024-01-30T10:48:34;8.90;;;4.00;;
23410;SDS011;11878;51.774;7.220;2024-01-30T10:51:44;8.03;;;3.87;;
23410;SDS011;11878;51.774;7.220;2024-01-30T10:54:49;9.83;;;4.00;;
23410;SDS011;11878;51.774;7.220;2024-01-30T10:57:52;8.70;;;3.50;;
23410;SDS011;11878;51.774;7.220;2024-01-30T11:00:55;11.73;;;3.73;;
23410;SDS011;11878;51.774;7.220;2024-01-30T11:03:58;10.37;;;4.07;;
23410;SDS011;11878;51.774;7.220;2024-01-30T11:07:00;11.20;;;4.17;;
23410;SDS011;11878;51.774;7.220;2024-01-30T11:10:04;10.10;;;3.57;;
23410;SDS011;11878;51.774;7.220;2024-01-30T11:13:10;8.93;;;3.40;;
23410;SDS011;11878;51.774;7.220;2024-01-30T11:16:15;7.97;;;3.90;;
23410;SDS011;11878;51.774;7.220;2024-01-30T11:19:24;9.13;;;3.80;;
23410;SDS011;11878;51.774;7.220;2024-01-30T11:22:30;11.73;;;4.07;;
23410;SDS011;11878;51.774;7.220;2024-01-30T11:25:32;8.20;;;3.93;;
23410;SDS011;11878;51.774;7.220;2024-01-30T11:28:35;7.80;;;3.83;;
23410;SDS011;11878;51.774;7.220;2024-01-30T11:31:39;7.77;;;3.53;;
23410;SDS011;11878;51.774;7.220;2024-01-30T11:34:41;10.37;;;4.13;;
23410;SDS011;11878;51.774;7.220;2024-01-30T11:37:43;10.63;;;3.63;;
23410;SDS011;11878;51.774;7.220;2024-01-30T11:40:50;6.73;;;3.40;;
23410;SDS011;11878;51.774;7.220;2024-01-30T11:43:54;10.60;;;4.33;;
23410;SDS011;11878;51.774;7.220;2024-01-30T11:46:57;10.60;;;4.73;;
23410;SDS011;11878;51.774;7.220;2024-01-30T11:49:59;9.90;;;3.43;;
23410;SDS011;11878;51.774;7.220;2024-01-30T11:53:02;10.53;;;3.77;;
23410;SDS011;11878;51.774;7.220;2024-01-30T11:56:06;13.67;;;4.37;;
23410;SDS011;11878;51.774;7.220;2024-01-30T11:59:08;10.43;;;4.20;;
23410;SDS011;11878;51.774;7.220;2024-01-30T12:02:15;7.27;;;3.80;;
23410;SDS011;11878;51.774;7.220;2024-01-30T12:05:21;11.33;;;3.77;;
23410;SDS011;11878;51.774;7.220;2024-01-30T12:08:24;10.53;;;4.00;;
23410;SDS011;11878;51.774;7.220;2024-01-30T12:11:26;11.73;;;3.60;;
23410;SDS011;11878;51.774;7.220;2024-01-30T12:14:31;8.27;;;4.23;;
23410;SDS011;11878;51.774;7.220;2024-01-30T12:17:33;12.80;;;3.80;;
23410;SDS011;11878;51.774;7.220;2024-01-30T12:20:38;9.07;;;4.10;;
23410;SDS011;11878;51.774;7.220;2024-01-30T12:23:40;11.17;;;4.50;;
23410;SDS011;11878;51.774;7.220;2024-01-30T12:26:42;7.10;;;3.60;;
23410;SDS011;11878;51.774;7.220;2024-01-30T12:29:43;12.93;;;4.50;;
23410;SDS011;11878;51.774;7.220;2024-01-30T12:32:46;8.53;;;4.50;;
23410;SDS011;11878;51.774;7.220;2024-01-30T12:35:49;10.77;;;4.10;;
23410;SDS011;11878;51.774;7.220;2024-01-30T12:39:03;12.20;;;3.87;;
23410;SDS011;11878;51.774;7.220;2024-01-30T12:42:05;6.27;;;3.20;;
23410;SDS011;11878;51.774;7.220;2024-01-30T12:45:07;13.30;;;5.40;;
23410;SDS011;11878;51.774;7.220;2024-01-30T12:48:10;17.40;;;4.50;;
23410;SDS011;11878;51.774;7.220;2024-01-30T12:51:12;9.33;;;3.90;;
23410;SDS011;11878;51.774;7.220;2024-01-30T12:54:14;9.77;;;4.30;;
23410;SDS011;11878;51.774;7.220;2024-01-30T12:57:17;9.53;;;3.57;;
23410;SDS011;11878;51.774;7.220;2024-01-30T13:00:21;8.70;;;3.93;;
23410;SDS011;11878;51.774;7.220;2024-01-30T13:03:23;7.27;;;3.50;;
23410;SDS011;11878;51.774;7.220;2024-01-30T13:06:25;11.40;;;3.60;;
23410;SDS011;11878;51.774;7.220;2024-01-30T13:09:29;8.57;;;3.87;;
23410;SDS011;11878;51.774;7.220;2024-01-30T13:12:31;11.50;;;3.93;;
23410;SDS011;11878;51.774;7.220;2024-01-30T13:15:34;7.80;;;3.87;;
23410;SDS011;11878;51.774;7.220;2024-01-30T13:18:37;6.87;;;3.83;;
23410;SDS011;11878;51.774;7.220;2024-01-30T13:21:39;11.07;;;5.07;;
23410;SDS011;11878;51.774;7.220;2024-01-30T13:24:41;9.53;;;4.40;;
23410;SDS011;11878;51.774;7.220;2024-01-30T13:27:43;9.60;;;4.10;;
23410;SDS011;11878;51.774;7.220;2024-01-30T13:30:46;7.93;;;3.77;;
23410;SDS011;11878;51.774;7.220;2024-01-30T13:33:47;13.13;;;4.63;;
23410;SDS011;11878;51.774;7.220;2024-01-30T13:36:50;8.60;;;4.07;;
23410;SDS011;11878;51.774;7.220;2024-01-30T13:39:55;8.00;;;4.13;;
23410;SDS011;11878;51.774;7.220;2024-01-30T13:42:58;9.80;;;4.13;;
23410;SDS011;11878;51.774;7.220;2024-01-30T13:46:00;9.30;;;3.77;;
23410;SDS011;11878;51.774;7.220;2024-01-30T13:49:03;9.03;;;3.90;;
23410;SDS011;11878;51.774;7.220;2024-01-30T13:52:05;11.97;;;4.00;;
23410;SDS011;11878;51.774;7.220;2024-01-30T13:55:07;10.10;;;4.07;;
23410;SDS011;11878;51.774;7.220;2024-01-30T13:58:10;13.30;;;4.03;;
23410;SDS011;11878;51.774;7.220;2024-01-30T14:01:12;10.33;;;4.87;;
23410;SDS011;11878;51.774;7.220;2024-01-30T14:04:15;10.30;;;4.00;;
23410;SDS011;11878;51.774;7.220;2024-01-30T14:07:18;11.13;;;4.70;;
23410;SDS011;11878;51.774;7.220;2024-01-30T14:10:20;6.90;;;3.63;;
23410;SDS011;11878;51.774;7.220;2024-01-30T14:13:23;11.17;;;4.10;;
23410;SDS011;11878;51.774;7.220;2024-01-30T14:16:26;7.47;;;4.00;;
23410;SDS011;11878;51.774;7.220;2024-01-30T14:19:30;8.47;;;4.00;;
23410;SDS011;11878;51.774;7.220;2024-01-30T14:22:33;8.63;;;4.37;;
23410;SDS011;11878;51.774;7.220;2024-01-30T14:25:37;7.30;;;3.70;;
23410;SDS011;11878;51.774;7.220;2024-01-30T14:28:40;7.40;;;4.10;;
23410;SDS011;11878;51.774;7.220;2024-01-30T14:31:42;14.43;;;4.30;;
23410;SDS011;11878;51.774;7.220;2024-01-30T14:34:44;9.40;;;4.50;;
23410;SDS011;11878;51.774;7.220;2024-01-30T14:37:46;7.90;;;4.83;;
23410;SDS011;11878;51.774;7.220;2024-01-30T14:40:48;12.30;;;4.90;;
23410;SDS011;11878;51.774;7.220;2024-01-30T14:43:50;9.40;;;4.03;;
23410;SDS011;11878;51.774;7.220;2024-01-30T14:46:51;15.30;;;4.47;;
23410;SDS011;11878;51.774;7.220;2024-01-30T14:49:53;10.30;;;4.40;;
23410;SDS011;11878;51.774;7.220;2024-01-30T14:52:55;11.50;;;4.10;;
23410;SDS011;11878;51.774;7.220;2024-01-30T14:55:57;7.73;;;3.93;;
23410;SDS011;11878;51.774;7.220;2024-01-30T14:58:59;23.93;;;7.90;;
23410;SDS011;11878;51.774;7.220;2024-01-30T15:02:01;11.83;;;4.43;;
23410;SDS011;11878;51.774;7.220;2024-01-30T15:05:03;10.10;;;4.50;;
23410;SDS011;11878;51.774;7.220;2024-01-30T15:08:06;8.90;;;4.30;;
23410;SDS011;11878;51.774;7.220;2024-01-30T15:11:08;6.50;;;3.40;;
23410;SDS011;11878;51.774;7.220;2024-01-30T15:14:10;8.50;;;3.23;;
23410;SDS011;11878;51.774;7.220;2024-01-30T15:17:12;8.87;;;3.20;;
23410;SDS011;11878;51.774;7.220;2024-01-30T15:20:14;4.83;;;3.30;;
23410;SDS011;11878;51.774;7.220;2024-01-30T15:23:19;7.40;;;2.83;;
23410;SDS011;11878;51.774;7.220;2024-01-30T15:26:22;5.07;;;2.60;;
23410;SDS011;11878;51.774;7.220;2024-01-30T15:29:24;8.77;;;2.27;;
23410;SDS011;11878;51.774;7.220;2024-01-30T15:32:26;5.20;;;1.90;;
23410;SDS011;11878;51.774;7.220;2024-01-30T15:35:28;4.37;;;1.63;;
23410;SDS011;11878;51.774;7.220;2024-01-30T15:38:31;6.67;;;1.47;;
23410;SDS011;11878;51.774;7.220;2024-01-30T15:41:34;3.50;;;1.57;;
23410;SDS011;11878;51.774;7.220;2024-01-30T15:44:36;5.27;;;1.00;;
23410;SDS011;11878;51.774;7.220;2024-01-30T15:47:38;4.83;;;0.80;;
23410;SDS011;11878;51.774;7.220;2024-01-30T15:50:40;0.57;;;0.50;;
23410;SDS011;11878;51.774;7.220;2024-01-30T15:53:42;4.03;;;0.90;;
23410;SDS011;11878;51.774;7.220;2024-01-30T15:56:44;3.67;;;0.60;;
23410;SDS011;11878;51.774;7.220;2024-01-30T15:59:45;0.87;;;0.60;;
23410;SDS011;11878;51.774;7.220;2024-01-30T16:02:47;2.23;;;0.57;;
23410;SDS011;11878;51.774;7.220;2024-01-30T16:05:49;1.03;;;0.30;;
23410;SDS011;11878;51.774;7.220;2024-01-30T16:08:51;2.43;;;0.77;;
23410;SDS011;11878;51.774;7.220;2024-01-30T16:11:55;3.30;;;0.77;;
23410;SDS011;11878;51.774;7.220;2024-01-30T16:14:56;1.87;;;0.50;;
23410;SDS011;11878;51.774;7.220;2024-01-30T16:18:00;0.80;;;0.63;;
23410;SDS011;11878;51.774;7.220;2024-01-30T16:21:02;2.83;;;0.57;;
23410;SDS011;11878;51.774;7.220;2024-01-30T16:24:03;1.93;;;0.80;;
23410;SDS011;11878;51.774;7.220;2024-01-30T16:27:05;3.37;;;0.80;;
23410;SDS011;11878;51.774;7.220;2024-01-30T16:30:08;7.53;;;1.70;;
23410;SDS011;11878;51.774;7.220;2024-01-30T16:33:10;5.93;;;1.63;;
23410;SDS011;11878;51.774;7.220;2024-01-30T16:36:14;5.47;;;1.50;;
23410;SDS011;11878;51.774;7.220;2024-01-30T16:39:17;3.70;;;1.20;;
23410;SDS011;11878;51.774;7.220;2024-01-30T16:42:19;1.77;;;0.53;;
23410;SDS011;11878;51.774;7.220;2024-01-30T16:45:22;3.43;;;0.97;;
23410;SDS011;11878;51.774;7.220;2024-01-30T16:48:24;2.10;;;0.60;;
23410;SDS011;11878;51.774;7.220;2024-01-30T16:51:26;2.30;;;0.80;;
23410;SDS011;11878;51.774;7.220;2024-01-30T16:54:28;2.37;;;0.60;;
23410;SDS011;11878;51.774;7.220;2024-01-30T16:57:30;1.57;;;0.77;;
23410;SDS011;11878;51.774;7.220;2024-01-30T17:00:35;5.03;;;1.00;;
23410;SDS011;11878;51.774;7.220;2024-01-30T17:03:37;1.60;;;0.63;;
23410;SDS011;11878;51.774;7.220;2024-01-30T17:06:43;1.60;;;0.70;;
23410;SDS011;11878;51.774;7.220;2024-01-30T17:09:44;1.93;;;0.53;;
23410;SDS011;11878;51.774;7.220;2024-01-30T17:12:46;3.37;;;0.70;;
23410;SDS011;11878;51.774;7.220;2024-01-30T17:15:48;4.13;;;0.57;;
23410;SDS011;11878;51.774;7.220;2024-01-30T17:18:50;2.47;;;0.50;;
23410;SDS011;11878;51.774;7.220;2024-01-30T17:21:52;2.10;;;0.83;;
23410;SDS011;11878;51.774;7.220;2024-01-30T17:24:55;7.50;;;0.80;;
23410;SDS011;11878;51.774;7.220;2024-01-30T17:27:58;5.10;;;1.37;;
23410;SDS011;11878;51.774;7.220;2024-01-30T17:31:01;4.33;;;1.80;;
23410;SDS011;11878;51.774;7.220;2024-01-30T17:34:03;3.53;;;2.20;;
23410;SDS011;11878;51.774;7.220;2024-01-30T17:37:05;4.77;;;2.33;;
23410;SDS011;11878;51.774;7.220;2024-01-30T17:40:07;5.70;;;2.63;;
23410;SDS011;11878;51.774;7.220;2024-01-30T17:43:22;5.97;;;3.43;;
23410;SDS011;11878;51.774;7.220;2024-01-30T17:46:24;5.07;;;2.57;;
23410;SDS011;11878;51.774;7.220;2024-01-30T17:49:26;7.57;;;3.43;;
23410;SDS011;11878;51.774;7.220;2024-01-30T17:52:31;6.07;;;2.07;;
23410;SDS011;11878;51.774;7.220;2024-01-30T17:55:33;7.73;;;2.33;;
23410;SDS011;11878;51.774;7.220;2024-01-30T17:58:34;4.77;;;2.03;;
23410;SDS011;11878;51.774;7.220;2024-01-30T18:01:37;3.30;;;1.90;;
23410;SDS011;11878;51.774;7.220;2024-01-30T18:04:39;4.00;;;2.00;;
23410;SDS011;11878;51.774;7.220;2024-01-30T18:07:41;2.40;;;1.73;;
23410;SDS011;11878;51.774;7.220;2024-01-30T18:10:45;4.47;;;2.00;;
23410;SDS011;11878;51.774;7.220;2024-01-30T18:13:47;7.80;;;2.03;;
23410;SDS011;11878;51.774;7.220;2024-01-30T18:16:49;4.13;;;1.90;;
23410;SDS011;11878;51.774;7.220;2024-01-30T18:19:51;7.07;;;2.30;;